createdAt,value
2023-05-05T00:02:09.981Z,99659.59
2023-05-05T00:05:14.170Z,99650.38
2023-05-05T00:08:17.050Z,99657.41
2023-05-05T00:11:19.798Z,99661.63
2023-05-05T00:14:22.580Z,99656.06
2023-05-05T00:17:25.397Z,99658.94
2023-05-05T00:20:29.640Z,99657.41
2023-05-05T00:23:32.487Z,99656.75
2023-05-05T00:26:35.267Z,99664.78
2023-05-05T00:29:38.043Z,99660.44
2023-05-05T00:32:40.995Z,99657.91
2023-05-05T00:35:46.569Z,99663.47
2023-05-05T00:38:49.481Z,99665.44
2023-05-05T00:41:52.284Z,99657.56
2023-05-05T00:44:55.113Z,99657.38
2023-05-05T00:47:58.658Z,99659.56
2023-05-05T00:51:02.881Z,99650.69
2023-05-05T00:54:06.568Z,99650.88
2023-05-05T00:57:09.573Z,99648.19
2023-05-05T01:00:12.789Z,99644.50
2023-05-05T01:03:15.701Z,99647.38
2023-05-05T01:06:25.425Z,99649.69
2023-05-05T01:09:36.274Z,99651.38
2023-05-05T01:12:44.650Z,99646.66
2023-05-05T01:15:49.334Z,99640.63
2023-05-05T01:18:55.718Z,99645.16
2023-05-05T01:22:01.518Z,99638.47
2023-05-05T01:25:22.793Z,99639.81
2023-05-05T01:28:29.116Z,99640.28
2023-05-05T01:31:51.653Z,99632.75
2023-05-05T01:34:56.913Z,99627.72
2023-05-05T01:38:01.858Z,99625.38
2023-05-05T01:41:06.549Z,99624.34
2023-05-05T01:44:10.713Z,99622.50
2023-05-05T01:47:16.988Z,99628.19
2023-05-05T01:50:20.562Z,99626.84
2023-05-05T01:53:24.824Z,99628.19
2023-05-05T01:56:28.434Z,99626.88
2023-05-05T01:59:31.818Z,99622.00
2023-05-05T02:02:36.873Z,99618.84
2023-05-05T02:05:40.907Z,99623.34
2023-05-05T02:08:45.112Z,99615.44
2023-05-05T02:11:48.029Z,99613.47
2023-05-05T02:14:51.073Z,99620.81
2023-05-05T02:17:55.630Z,99631.88
2023-05-05T02:20:58.431Z,99628.69
2023-05-05T02:24:01.417Z,99621.81
2023-05-05T02:27:05.245Z,99621.16
2023-05-05T02:30:09.838Z,99624.06
2023-05-05T02:33:17.635Z,99617.81
2023-05-05T02:36:21.958Z,99629.25
2023-05-05T02:39:27.481Z,99625.56
2023-05-05T02:42:33.443Z,99621.19
2023-05-05T02:45:36.207Z,99629.03
2023-05-05T02:48:40.426Z,99622.13
2023-05-05T02:51:43.335Z,99627.34
2023-05-05T02:54:46.180Z,99630.69
2023-05-05T02:57:51.028Z,99629.03
2023-05-05T03:00:57.071Z,99622.84
2023-05-05T03:04:08.437Z,99628.19
2023-05-05T03:07:14.422Z,99619.47
2023-05-05T03:10:18.906Z,99620.81
2023-05-05T03:13:21.963Z,99620.81
2023-05-05T03:16:25.810Z,99611.09
2023-05-05T03:19:30.816Z,99615.81
2023-05-05T03:22:36.692Z,99614.78
2023-05-05T03:25:42.827Z,99616.47
2023-05-05T03:28:45.647Z,99615.94
2023-05-05T03:31:48.501Z,99613.31
2023-05-05T03:34:52.675Z,99611.94
2023-05-05T03:37:55.802Z,99614.81
2023-05-05T03:40:58.675Z,99621.38
2023-05-05T03:44:01.617Z,99637.75
2023-05-05T03:47:04.474Z,99628.19
2023-05-05T03:50:09.713Z,99641.13
2023-05-05T03:53:12.657Z,99632.41
2023-05-05T03:56:15.532Z,99641.00
2023-05-05T03:59:18.518Z,99637.59
2023-05-05T04:02:21.423Z,99631.75
2023-05-05T04:05:25.634Z,99631.28
2023-05-05T04:08:28.477Z,99633.13
2023-05-05T04:11:31.419Z,99631.94
2023-05-05T04:14:34.200Z,99635.63
2023-05-05T04:17:37.001Z,99640.81
2023-05-05T04:20:41.141Z,99640.47
2023-05-05T04:23:43.992Z,99637.97
2023-05-05T04:26:46.755Z,99634.31
2023-05-05T04:29:49.577Z,99629.38
2023-05-05T04:32:52.369Z,99634.16
2023-05-05T04:35:56.595Z,99640.69
2023-05-05T04:38:59.484Z,99636.25
2023-05-05T04:42:02.402Z,99626.84
2023-05-05T04:45:05.491Z,99623.69
2023-05-05T04:48:08.424Z,99624.81
2023-05-05T04:51:12.888Z,99627.03
2023-05-05T04:54:15.681Z,99632.75
2023-05-05T04:57:18.425Z,99626.94
2023-05-05T05:00:21.740Z,99634.09
2023-05-05T05:03:24.631Z,99624.06
2023-05-05T05:06:29.388Z,99625.06
2023-05-05T05:09:32.144Z,99627.25
2023-05-05T05:12:34.936Z,99626.91
2023-05-05T05:15:38.288Z,99620.03
2023-05-05T05:18:41.138Z,99614.84
2023-05-05T05:21:45.218Z,99619.22
2023-05-05T05:24:48.034Z,99624.59
2023-05-05T05:28:02.298Z,99607.13
2023-05-05T05:31:12.238Z,99615.69
2023-05-05T05:34:15.092Z,99615.88
2023-05-05T05:37:19.834Z,99611.81
2023-05-05T05:40:22.800Z,99613.50
2023-05-05T05:43:25.884Z,99614.66
2023-05-05T05:46:28.888Z,99617.03
2023-05-05T05:49:32.156Z,99614.84
2023-05-05T05:52:36.571Z,99604.75
2023-05-05T05:55:41.849Z,99613.81
2023-05-05T05:58:45.411Z,99611.59
2023-05-05T06:01:48.369Z,99612.06
2023-05-05T06:04:52.201Z,99612.22
2023-05-05T06:07:57.997Z,99606.31
2023-05-05T06:11:05.006Z,99606.84
2023-05-05T06:14:08.553Z,99604.72
2023-05-05T06:17:11.779Z,99604.66
2023-05-05T06:20:15.901Z,99610.53
2023-05-05T06:23:20.480Z,99607.38
2023-05-05T06:26:23.691Z,99602.34
2023-05-05T06:29:27.086Z,99597.38
2023-05-05T06:32:30.309Z,99594.00
2023-05-05T06:35:34.779Z,99599.47
2023-05-05T06:38:39.257Z,99592.88
2023-05-05T06:41:43.082Z,99593.84
2023-05-05T06:44:46.802Z,99592.19
2023-05-05T06:47:50.733Z,99592.03
2023-05-05T06:50:56.660Z,99595.03
2023-05-05T06:54:01.136Z,99591.19
2023-05-05T06:57:04.158Z,99586.13
2023-05-05T07:00:09.912Z,99590.53
2023-05-05T07:03:15.898Z,99584.28
2023-05-05T07:06:19.123Z,99581.06
2023-05-05T07:09:23.683Z,99579.72
2023-05-05T07:12:26.775Z,99575.38
2023-05-05T07:15:29.966Z,99572.03
2023-05-05T07:18:32.927Z,99573.53
2023-05-05T07:21:36.156Z,99566.28
2023-05-05T07:24:40.334Z,99563.44
2023-05-05T07:27:43.124Z,99563.13
2023-05-05T07:30:46.021Z,99563.94
2023-05-05T07:33:49.604Z,99557.25
2023-05-05T07:36:52.333Z,99559.22
2023-05-05T07:39:56.613Z,99556.44
2023-05-05T07:42:59.334Z,99565.00
2023-05-05T07:46:02.106Z,99563.16
2023-05-05T07:49:04.947Z,99556.75
2023-05-05T07:52:07.737Z,99555.75
2023-05-05T07:55:11.869Z,99554.72
2023-05-05T07:58:14.640Z,99549.19
2023-05-05T08:01:17.401Z,99539.59
2023-05-05T08:04:20.255Z,99554.56
2023-05-05T08:07:23.113Z,99545.69
2023-05-05T08:10:27.259Z,99546.03
2023-05-05T08:13:30.525Z,99542.50
2023-05-05T08:16:33.356Z,99545.19
2023-05-05T08:19:36.194Z,99548.16
2023-05-05T08:22:38.956Z,99546.03
2023-05-05T08:25:43.167Z,99551.72
2023-05-05T08:28:46.722Z,99555.38
2023-05-05T08:31:49.580Z,99557.19
2023-05-05T08:34:52.363Z,99549.97
2023-05-05T08:37:56.674Z,99549.16
2023-05-05T08:41:03.730Z,99554.00
2023-05-05T08:44:06.506Z,99559.69
2023-05-05T08:47:12.005Z,99550.97
2023-05-05T08:50:16.001Z,99553.50
2023-05-05T08:53:19.035Z,99557.34
2023-05-05T08:56:23.344Z,99558.38
2023-05-05T08:59:30.343Z,99553.00
2023-05-05T09:02:33.879Z,99557.72
2023-05-05T09:05:36.964Z,99552.34
2023-05-05T09:08:40.036Z,99562.91
2023-05-05T09:11:45.027Z,99568.13
2023-05-05T09:14:48.154Z,99569.47
2023-05-05T09:17:51.179Z,99569.47
2023-05-05T09:20:54.092Z,99564.59
2023-05-05T09:24:09.153Z,99556.03
2023-05-05T09:27:23.656Z,99551.66
2023-05-05T09:30:27.159Z,99553.97
2023-05-05T09:33:30.860Z,99547.94
2023-05-05T09:36:44.252Z,99541.56
2023-05-05T09:39:54.749Z,99540.03
2023-05-05T09:43:03.259Z,99536.84
2023-05-05T09:46:08.944Z,99529.97
2023-05-05T09:49:18.759Z,99529.28
2023-05-05T09:52:21.934Z,99521.56
2023-05-05T09:55:24.787Z,99533.31
2023-05-05T09:58:29.468Z,99530.13
2023-05-05T10:01:32.288Z,99518.72
2023-05-05T10:04:36.141Z,99522.72
2023-05-05T10:07:39.325Z,99529.94
2023-05-05T10:10:47.808Z,99523.91
2023-05-05T10:13:51.940Z,99524.75
2023-05-05T10:16:55.850Z,99525.75
2023-05-05T10:19:59.965Z,99522.22
2023-05-05T10:23:03.709Z,99526.44
2023-05-05T10:26:07.474Z,99523.59
2023-05-05T10:29:14.689Z,99518.41
2023-05-05T10:32:51.144Z,99527.09
2023-05-05T10:35:48.487Z,99521.41
2023-05-05T10:38:53.229Z,99523.25
2023-05-05T10:41:56.003Z,99526.97
2023-05-05T10:45:00.261Z,99519.28
2023-05-05T10:48:05.521Z,99523.13
2023-05-05T10:51:27.406Z,99517.75
2023-05-05T10:54:38.468Z,99506.53
2023-05-05T10:57:42.913Z,99513.41
2023-05-05T11:00:53.491Z,99504.50
2023-05-05T11:04:11.212Z,99512.06
2023-05-05T11:07:24.544Z,99511.59
2023-05-05T11:10:27.345Z,99503.03
2023-05-05T11:13:30.212Z,99500.81
2023-05-05T11:16:55.212Z,99493.13
2023-05-05T11:19:59.393Z,99479.69
2023-05-05T11:23:20.297Z,99474.22
2023-05-05T11:26:41.477Z,99476.63
2023-05-05T11:30:03.699Z,99470.25
2023-05-05T11:33:24.965Z,99471.34
2023-05-05T11:36:41.834Z,99472.69
2023-05-05T11:39:52.217Z,99468.84
2023-05-05T11:43:05.402Z,99468.66
2023-05-05T11:46:11.566Z,99459.63
2023-05-05T11:49:27.110Z,99464.44
2023-05-05T11:52:31.244Z,99462.59
2023-05-05T11:55:34.024Z,99459.06
2023-05-05T11:58:36.817Z,99450.81
2023-05-05T12:01:40.977Z,99448.81
2023-05-05T12:04:43.895Z,99449.53
2023-05-05T12:07:48.102Z,99446.09
2023-05-05T12:10:50.894Z,99443.31
2023-05-05T12:14:08.066Z,99446.28
2023-05-05T12:17:10.841Z,99430.28
2023-05-05T12:20:14.038Z,99437.09
2023-05-05T12:23:18.271Z,99423.97
2023-05-05T12:26:25.506Z,99435.41
2023-05-05T12:29:30.065Z,99438.94
2023-05-05T12:32:32.845Z,99430.72
2023-05-05T12:35:35.919Z,99426.59
2023-05-05T12:38:40.172Z,99427.44
2023-05-05T12:41:42.984Z,99417.22
2023-05-05T12:44:46.813Z,99414.38
2023-05-05T12:47:49.678Z,99413.53
2023-05-05T12:50:52.748Z,99417.22
2023-05-05T12:54:07.307Z,99411.84
2023-05-05T12:57:12.517Z,99410.34
2023-05-05T13:00:16.362Z,99417.22
2023-05-05T13:03:20.382Z,99407.81
2023-05-05T13:06:24.821Z,99411.03
2023-05-05T13:09:30.439Z,99411.72
2023-05-05T13:12:33.299Z,99412.72
2023-05-05T13:15:36.614Z,99411.53
2023-05-05T13:18:45.789Z,99416.38
2023-05-05T13:21:48.580Z,99411.84
2023-05-05T13:24:53.078Z,99407.69
2023-05-05T13:27:55.865Z,99413.69
2023-05-05T13:30:59.734Z,99408.50
2023-05-05T13:34:02.618Z,99406.00
2023-05-05T13:37:05.385Z,99411.69
2023-05-05T13:40:10.798Z,99408.03
2023-05-05T13:43:13.620Z,99412.88
2023-05-05T13:46:20.096Z,99418.06
2023-05-05T13:49:25.048Z,99421.25
2023-05-05T13:52:29.018Z,99426.28
2023-05-05T13:55:34.623Z,99428.78
2023-05-05T13:58:37.982Z,99420.72
2023-05-05T14:01:40.916Z,99416.69
2023-05-05T14:04:43.737Z,99420.22
2023-05-05T14:07:46.925Z,99421.09
2023-05-05T14:10:52.175Z,99417.22
2023-05-05T14:13:55.205Z,99412.50
2023-05-05T14:16:58.138Z,99413.69
2023-05-05T14:20:00.981Z,99411.03
2023-05-05T14:23:03.746Z,99409.38
2023-05-05T14:26:09.130Z,99400.13
2023-05-05T14:29:12.003Z,99394.75
2023-05-05T14:32:14.831Z,99377.66
2023-05-05T14:35:17.784Z,99375.88
2023-05-05T14:38:20.702Z,99382.28
2023-05-05T14:41:24.947Z,99378.47
2023-05-05T14:44:28.424Z,99382.94
2023-05-05T14:47:31.212Z,99385.13
2023-05-05T14:50:33.988Z,99400.44
2023-05-05T14:53:36.940Z,99397.94
2023-05-05T14:56:41.170Z,99399.94
2023-05-05T14:59:45.781Z,99397.94
2023-05-05T15:02:49.343Z,99395.78
2023-05-05T15:08:54.814Z,99388.75
2023-05-05T15:11:58.910Z,99393.63
2023-05-05T15:15:01.694Z,99394.78
2023-05-05T15:18:04.667Z,99391.13
2023-05-05T15:21:07.600Z,99391.94
2023-05-05T15:24:10.675Z,99402.16
2023-05-05T15:27:14.834Z,99399.31
2023-05-05T15:30:17.775Z,99406.34
2023-05-05T15:33:20.606Z,99399.00
2023-05-05T15:36:24.751Z,99407.19
2023-05-05T15:39:27.574Z,99413.19
2023-05-05T15:42:32.962Z,99418.06
2023-05-05T15:45:36.055Z,99426.09
2023-05-05T15:48:38.770Z,99425.63
2023-05-05T15:51:41.877Z,99428.97
2023-05-05T15:54:44.718Z,99430.16
2023-05-05T15:57:48.812Z,99432.44
2023-05-05T16:00:51.687Z,99425.75
2023-05-05T16:03:54.456Z,99432.78
2023-05-05T16:06:58.134Z,99442.84
2023-05-05T16:10:00.961Z,99441.00
2023-05-05T16:13:05.226Z,99441.03
2023-05-05T16:16:08.269Z,99437.66
2023-05-05T16:19:11.080Z,99451.72
2023-05-05T16:22:13.884Z,99448.22
2023-05-05T16:25:18.449Z,99450.41
2023-05-05T16:28:22.512Z,99461.94
2023-05-05T16:31:25.329Z,99467.50
2023-05-05T16:34:28.248Z,99477.91
2023-05-05T16:37:31.083Z,99478.72
2023-05-05T16:40:33.832Z,99481.06
2023-05-05T16:43:38.178Z,99488.78
2023-05-05T16:46:41.024Z,99482.41
2023-05-05T16:49:44.029Z,99488.59
2023-05-05T16:52:46.875Z,99493.78
2023-05-05T16:55:50.874Z,99496.47
2023-05-05T16:58:55.024Z,99498.31
2023-05-05T17:01:57.896Z,99500.00
2023-05-05T17:05:00.785Z,99508.56
2023-05-05T17:08:03.989Z,99507.38
2023-05-05T17:11:06.799Z,99503.88
2023-05-05T17:14:11.036Z,99506.22
2023-05-05T17:17:13.868Z,99510.25
2023-05-05T17:20:16.730Z,99513.75
2023-05-05T17:23:21.223Z,99520.59
2023-05-05T17:26:24.209Z,99524.97
2023-05-05T17:29:28.508Z,99531.66
2023-05-05T17:32:31.389Z,99517.75
2023-05-05T17:35:34.206Z,99530.50
2023-05-05T17:38:36.968Z,99527.66
2023-05-05T17:41:39.721Z,99532.69
2023-05-05T17:44:45.021Z,99536.19
2023-05-05T17:47:49.259Z,99538.03
2023-05-05T17:50:52.342Z,99542.53
2023-05-05T17:53:55.101Z,99543.72
2023-05-05T17:56:57.848Z,99552.13
2023-05-05T18:00:03.404Z,99551.28
2023-05-05T18:03:06.367Z,99553.25
2023-05-05T18:06:09.331Z,99556.13
2023-05-05T18:09:12.217Z,99559.81
2023-05-05T18:12:14.986Z,99561.00
2023-05-05T18:15:19.165Z,99561.00
2023-05-05T18:18:22.315Z,99565.66
2023-05-05T18:21:25.107Z,99568.19
2023-05-05T18:24:28.236Z,99567.00
2023-05-05T18:27:32.516Z,99574.22
2023-05-05T18:30:36.801Z,99575.53
2023-05-05T18:33:39.629Z,99586.13
2023-05-05T18:36:42.422Z,99582.91
2023-05-05T18:39:45.281Z,99581.91
2023-05-05T18:42:48.241Z,99582.75
2023-05-05T18:45:52.802Z,99580.59
2023-05-05T18:48:55.955Z,99582.44
2023-05-05T18:51:58.672Z,99580.59
2023-05-05T18:55:01.649Z,99576.22
2023-05-05T18:58:04.487Z,99578.94
2023-05-05T19:01:08.952Z,99580.59
2023-05-05T19:04:26.553Z,99573.41
2023-05-05T19:07:35.788Z,99573.94
2023-05-05T19:10:38.880Z,99569.59
2023-05-05T19:13:43.028Z,99581.53
2023-05-05T19:16:48.594Z,99574.19
2023-05-05T19:19:51.596Z,99579.59
2023-05-05T19:22:55.251Z,99578.16
2023-05-05T19:25:58.234Z,99581.69
2023-05-05T19:29:01.073Z,99576.84
2023-05-05T19:32:05.520Z,99582.78
2023-05-05T19:35:10.702Z,99579.56
2023-05-05T19:38:13.674Z,99583.56
2023-05-05T19:41:17.901Z,99584.28
2023-05-05T19:44:22.548Z,99583.13
2023-05-05T19:47:27.096Z,99592.72
2023-05-05T19:50:30.773Z,99595.19
2023-05-05T19:53:34.589Z,99590.72
2023-05-05T19:56:37.360Z,99589.13
2023-05-05T19:59:40.266Z,99586.84
2023-05-05T20:02:45.405Z,99592.81
2023-05-05T20:05:48.260Z,99582.94
2023-05-05T20:08:51.164Z,99587.97
2023-05-05T20:11:53.959Z,99578.31
2023-05-05T20:14:56.706Z,99576.03
2023-05-05T20:18:00.965Z,99581.75
2023-05-05T20:21:03.976Z,99578.50
2023-05-05T20:24:07.293Z,99572.75
2023-05-05T20:27:10.031Z,99580.25
2023-05-05T20:30:13.590Z,99586.75
2023-05-05T20:33:17.762Z,99583.50
2023-05-05T20:36:20.610Z,99593.88
2023-05-05T20:39:23.429Z,99591.22
2023-05-05T20:42:27.858Z,99589.59
2023-05-05T20:45:31.786Z,99594.47
2023-05-05T20:48:36.950Z,99587.81
2023-05-05T20:51:42.889Z,99584.63
2023-05-05T20:54:45.651Z,99579.78
2023-05-05T20:57:48.474Z,99588.34
2023-05-05T21:00:51.322Z,99590.00
2023-05-05T21:03:55.452Z,99578.00
2023-05-05T21:06:58.507Z,99581.66
2023-05-05T21:10:01.398Z,99588.47
2023-05-05T21:13:04.436Z,99589.91
2023-05-05T21:16:07.424Z,99586.38
2023-05-05T21:19:11.584Z,99581.34
2023-05-05T21:22:14.381Z,99585.22
2023-05-05T21:25:17.849Z,99578.72
2023-05-05T21:28:20.653Z,99581.56
2023-05-05T21:31:23.502Z,99581.16
2023-05-05T21:34:27.692Z,99581.88
2023-05-05T21:37:30.950Z,99583.53
2023-05-05T21:40:33.713Z,99585.91
2023-05-05T21:43:36.718Z,99583.53
2023-05-05T21:46:39.622Z,99579.66
2023-05-05T21:49:43.868Z,99575.72
2023-05-05T21:52:46.586Z,99575.19
2023-05-05T21:55:49.533Z,99570.69
2023-05-05T21:58:52.263Z,99574.50
2023-05-05T22:01:55.204Z,99575.34
2023-05-05T22:04:59.496Z,99577.56
2023-05-05T22:08:02.353Z,99577.88
2023-05-05T22:11:05.205Z,99578.72
2023-05-05T22:14:07.953Z,99578.41
2023-05-05T22:17:10.745Z,99575.56
2023-05-05T22:20:15.068Z,99584.84
2023-05-05T22:23:20.925Z,99573.94
2023-05-05T22:26:23.678Z,99581.00
2023-05-05T22:29:26.571Z,99575.19
2023-05-05T22:32:29.391Z,99573.34
2023-05-05T22:35:33.626Z,99577.53
2023-05-05T22:38:36.394Z,99572.44
2023-05-05T22:41:39.175Z,99565.84
2023-05-05T22:44:41.920Z,99577.22
2023-05-05T22:47:44.759Z,99566.06
2023-05-05T22:50:48.878Z,99565.91
2023-05-05T22:53:51.682Z,99570.44
2023-05-05T22:56:54.423Z,99566.69
2023-05-05T22:59:57.256Z,99572.16
2023-05-05T23:03:00.048Z,99578.84
2023-05-05T23:06:04.272Z,99573.00
2023-05-05T23:09:07.033Z,99571.00
2023-05-05T23:12:09.788Z,99569.81
2023-05-05T23:15:12.925Z,99576.00
2023-05-05T23:18:15.796Z,99575.72
2023-05-05T23:21:19.928Z,99568.31
2023-05-05T23:24:22.814Z,99569.53
2023-05-05T23:27:25.731Z,99566.31
2023-05-05T23:30:28.504Z,99574.34
2023-05-05T23:33:31.402Z,99569.53
2023-05-05T23:36:35.531Z,99573.19
2023-05-05T23:39:38.306Z,99577.53
2023-05-05T23:42:41.075Z,99571.34
2023-05-05T23:45:43.806Z,99575.38
2023-05-05T23:48:46.646Z,99576.91
2023-05-05T23:51:50.852Z,99580.06
2023-05-05T23:54:53.642Z,99585.25
2023-05-05T23:57:56.507Z,99574.16
